Terminal Aerodrome Forecast
Issued by NWS Cleveland, OH

Home | Current Version | Previous Version | Text Only | Print | Product List | Glossary On
Versions: 1 2 3 4 5 6 7 8 9 10 11 12 13 14 15 16 17 18 19 20 21 22 23 24 25 26 27 28
319
FTUS41 KCLE 171739
TAFCLE
TAF
KCLE 171739Z 1718/1824 22010KT P6SM SCT015 OVC050
     FM172100 24012KT P6SM BKN020
     FM180100 25010KT 6SM BR OVC010
     FM180700 26010KT 5SM -SHRA BR OVC006
     FM181400 27008KT P6SM OVC008
     FM182000 27008KT P6SM OVC010=

USA.gov is the U.S. government's official web portal to all federal, state and local government web resources and services.